sensor_id;sensor_type;location;lat;lon;timestamp;temperature;humidity
43647;DHT22;56152;49.996;18.980;2024-02-23T00:02:57;9.40;87.90
43647;DHT22;56152;49.996;18.980;2024-02-23T00:07:59;9.40;87.90
43647;DHT22;56152;49.996;18.980;2024-02-23T00:13:06;9.40;88.00
43647;DHT22;56152;49.996;18.980;2024-02-23T00:18:14;9.40;87.90
43647;DHT22;56152;49.996;18.980;2024-02-23T00:23:17;9.40;88.90
43647;DHT22;56152;49.996;18.980;2024-02-23T00:28:22;9.40;87.70
43647;DHT22;56152;49.996;18.980;2024-02-23T00:33:24;9.40;88.40
43647;DHT22;56152;49.996;18.980;2024-02-23T00:38:26;9.40;87.80
43647;DHT22;56152;49.996;18.980;2024-02-23T00:43:37;9.30;87.90
43647;DHT22;56152;49.996;18.980;2024-02-23T00:48:40;9.20;88.10
43647;DHT22;56152;49.996;18.980;2024-02-23T00:53:50;9.20;88.30
43647;DHT22;56152;49.996;18.980;2024-02-23T00:59:00;9.20;88.40
43647;DHT22;56152;49.996;18.980;2024-02-23T01:04:03;9.10;88.50
43647;DHT22;56152;49.996;18.980;2024-02-23T01:09:05;9.20;88.50
43647;DHT22;56152;49.996;18.980;2024-02-23T01:14:12;9.20;88.40
43647;DHT22;56152;49.996;18.980;2024-02-23T01:19:14;9.10;88.50
43647;DHT22;56152;49.996;18.980;2024-02-23T01:24:16;9.10;88.60
43647;DHT22;56152;49.996;18.980;2024-02-23T01:29:20;9.10;88.70
43647;DHT22;56152;49.996;18.980;2024-02-23T01:34:22;9.10;88.70
43647;DHT22;56152;49.996;18.980;2024-02-23T01:39:25;9.10;88.70
43647;DHT22;56152;49.996;18.980;2024-02-23T01:44:28;9.10;88.80
43647;DHT22;56152;49.996;18.980;2024-02-23T01:49:31;9.10;88.90
43647;DHT22;56152;49.996;18.980;2024-02-23T01:54:34;9.10;88.90
43647;DHT22;56152;49.996;18.980;2024-02-23T01:59:39;9.10;88.70
43647;DHT22;56152;49.996;18.980;2024-02-23T02:04:41;9.10;88.60
43647;DHT22;56152;49.996;18.980;2024-02-23T02:09:47;9.10;88.60
43647;DHT22;56152;49.996;18.980;2024-02-23T02:14:51;9.00;88.80
43647;DHT22;56152;49.996;18.980;2024-02-23T02:19:53;9.00;89.00
43647;DHT22;56152;49.996;18.980;2024-02-23T02:24:57;9.00;88.90
43647;DHT22;56152;49.996;18.980;2024-02-23T02:30:04;9.00;89.00
43647;DHT22;56152;49.996;18.980;2024-02-23T02:35:07;9.00;88.70
43647;DHT22;56152;49.996;18.980;2024-02-23T02:40:10;9.10;88.70
43647;DHT22;56152;49.996;18.980;2024-02-23T02:45:14;9.10;88.60
43647;DHT22;56152;49.996;18.980;2024-02-23T02:50:16;9.10;88.60
43647;DHT22;56152;49.996;18.980;2024-02-23T02:55:18;9.10;88.50
43647;DHT22;56152;49.996;18.980;2024-02-23T03:00:22;9.20;88.50
43647;DHT22;56152;49.996;18.980;2024-02-23T03:05:25;9.20;88.30
43647;DHT22;56152;49.996;18.980;2024-02-23T03:10:30;9.20;88.30
43647;DHT22;56152;49.996;18.980;2024-02-23T03:15:38;9.10;88.50
43647;DHT22;56152;49.996;18.980;2024-02-23T03:20:40;9.00;88.90
43647;DHT22;56152;49.996;18.980;2024-02-23T03:25:47;8.90;89.30
43647;DHT22;56152;49.996;18.980;2024-02-23T03:30:50;8.90;89.70
43647;DHT22;56152;49.996;18.980;2024-02-23T03:35:52;8.80;90.00
43647;DHT22;56152;49.996;18.980;2024-02-23T03:40:56;8.70;90.20
43647;DHT22;56152;49.996;18.980;2024-02-23T03:46:00;8.60;90.30
43647;DHT22;56152;49.996;18.980;2024-02-23T03:51:03;8.60;90.40
43647;DHT22;56152;49.996;18.980;2024-02-23T03:56:07;8.50;90.50
43647;DHT22;56152;49.996;18.980;2024-02-23T04:01:11;8.60;90.60
43647;DHT22;56152;49.996;18.980;2024-02-23T04:06:16;8.50;90.60
43647;DHT22;56152;49.996;18.980;2024-02-23T04:11:19;8.50;90.80
43647;DHT22;56152;49.996;18.980;2024-02-23T04:16:26;8.40;91.10
43647;DHT22;56152;49.996;18.980;2024-02-23T04:21:30;8.40;91.00
43647;DHT22;56152;49.996;18.980;2024-02-23T04:26:33;8.40;91.00
43647;DHT22;56152;49.996;18.980;2024-02-23T04:31:38;8.40;91.10
43647;DHT22;56152;49.996;18.980;2024-02-23T04:36:41;8.30;91.10
43647;DHT22;56152;49.996;18.980;2024-02-23T04:41:43;8.30;91.20
43647;DHT22;56152;49.996;18.980;2024-02-23T04:46:47;8.30;91.30
43647;DHT22;56152;49.996;18.980;2024-02-23T04:51:52;8.30;91.50
43647;DHT22;56152;49.996;18.980;2024-02-23T04:56:56;8.20;91.50
43647;DHT22;56152;49.996;18.980;2024-02-23T05:02:13;8.20;91.90
43647;DHT22;56152;49.996;18.980;2024-02-23T05:07:15;8.20;91.60
43647;DHT22;56152;49.996;18.980;2024-02-23T05:12:17;8.20;91.70
43647;DHT22;56152;49.996;18.980;2024-02-23T05:17:21;8.10;91.70
43647;DHT22;56152;49.996;18.980;2024-02-23T05:22:24;8.20;91.80
43647;DHT22;56152;49.996;18.980;2024-02-23T05:27:25;8.20;91.80
43647;DHT22;56152;49.996;18.980;2024-02-23T05:32:30;8.10;91.80
43647;DHT22;56152;49.996;18.980;2024-02-23T05:37:32;8.10;91.90
43647;DHT22;56152;49.996;18.980;2024-02-23T05:42:37;8.10;92.00
43647;DHT22;56152;49.996;18.980;2024-02-23T05:47:41;8.10;92.10
43647;DHT22;56152;49.996;18.980;2024-02-23T05:52:43;8.10;92.20
43647;DHT22;56152;49.996;18.980;2024-02-23T05:57:46;8.00;92.30
43647;DHT22;56152;49.996;18.980;2024-02-23T06:02:50;8.00;92.40
43647;DHT22;56152;49.996;18.980;2024-02-23T06:07:51;8.00;92.50
43647;DHT22;56152;49.996;18.980;2024-02-23T06:12:55;8.00;92.60
43647;DHT22;56152;49.996;18.980;2024-02-23T06:17:59;8.00;92.80
43647;DHT22;56152;49.996;18.980;2024-02-23T06:23:02;7.90;93.00
43647;DHT22;56152;49.996;18.980;2024-02-23T06:28:06;7.90;93.10
43647;DHT22;56152;49.996;18.980;2024-02-23T06:33:11;7.90;93.20
43647;DHT22;56152;49.996;18.980;2024-02-23T06:38:13;7.80;93.40
43647;DHT22;56152;49.996;18.980;2024-02-23T06:43:25;7.80;93.50
43647;DHT22;56152;49.996;18.980;2024-02-23T06:48:41;7.80;93.50
43647;DHT22;56152;49.996;18.980;2024-02-23T06:53:44;7.80;93.70
43647;DHT22;56152;49.996;18.980;2024-02-23T06:58:46;7.80;93.70
43647;DHT22;56152;49.996;18.980;2024-02-23T07:03:53;7.70;93.90
43647;DHT22;56152;49.996;18.980;2024-02-23T07:08:55;7.70;94.00
43647;DHT22;56152;49.996;18.980;2024-02-23T07:14:02;7.70;94.10
43647;DHT22;56152;49.996;18.980;2024-02-23T07:19:08;7.70;94.20
43647;DHT22;56152;49.996;18.980;2024-02-23T07:24:11;7.70;94.30
43647;DHT22;56152;49.996;18.980;2024-02-23T07:29:14;7.70;94.40
43647;DHT22;56152;49.996;18.980;2024-02-23T07:34:17;7.60;94.50
43647;DHT22;56152;49.996;18.980;2024-02-23T07:39:19;7.60;94.70
43647;DHT22;56152;49.996;18.980;2024-02-23T07:44:22;7.70;94.80
43647;DHT22;56152;49.996;18.980;2024-02-23T07:49:27;7.70;94.90
43647;DHT22;56152;49.996;18.980;2024-02-23T07:54:29;7.70;95.00
43647;DHT22;56152;49.996;18.980;2024-02-23T07:59:32;7.70;95.00
43647;DHT22;56152;49.996;18.980;2024-02-23T08:04:48;7.80;95.10
43647;DHT22;56152;49.996;18.980;2024-02-23T08:09:51;7.80;95.20
43647;DHT22;56152;49.996;18.980;2024-02-23T08:14:52;7.80;95.30
43647;DHT22;56152;49.996;18.980;2024-02-23T08:19:56;7.80;95.40
43647;DHT22;56152;49.996;18.980;2024-02-23T08:24:59;7.80;95.50
43647;DHT22;56152;49.996;18.980;2024-02-23T08:30:01;7.80;95.50
43647;DHT22;56152;49.996;18.980;2024-02-23T08:35:06;7.80;95.60
43647;DHT22;56152;49.996;18.980;2024-02-23T08:40:11;7.80;95.70
43647;DHT22;56152;49.996;18.980;2024-02-23T08:45:13;7.90;95.70
43647;DHT22;56152;49.996;18.980;2024-02-23T08:50:17;7.90;95.80
43647;DHT22;56152;49.996;18.980;2024-02-23T08:55:19;7.90;95.80
43647;DHT22;56152;49.996;18.980;2024-02-23T09:00:21;7.90;95.80
43647;DHT22;56152;49.996;18.980;2024-02-23T09:05:26;7.90;95.90
43647;DHT22;56152;49.996;18.980;2024-02-23T09:10:28;7.90;95.90
43647;DHT22;56152;49.996;18.980;2024-02-23T09:15:33;7.90;96.00
43647;DHT22;56152;49.996;18.980;2024-02-23T09:20:38;7.90;96.10
43647;DHT22;56152;49.996;18.980;2024-02-23T09:25:40;7.90;96.10
43647;DHT22;56152;49.996;18.980;2024-02-23T09:30:44;8.00;96.10
43647;DHT22;56152;49.996;18.980;2024-02-23T09:35:48;8.10;96.10
43647;DHT22;56152;49.996;18.980;2024-02-23T09:40:51;8.20;96.20
43647;DHT22;56152;49.996;18.980;2024-02-23T09:45:53;8.20;96.10
43647;DHT22;56152;49.996;18.980;2024-02-23T09:50:58;8.20;96.00
43647;DHT22;56152;49.996;18.980;2024-02-23T09:56:01;8.20;95.90
43647;DHT22;56152;49.996;18.980;2024-02-23T10:01:03;8.20;95.90
43647;DHT22;56152;49.996;18.980;2024-02-23T10:06:07;8.20;95.90
43647;DHT22;56152;49.996;18.980;2024-02-23T10:11:12;8.20;95.90
43647;DHT22;56152;49.996;18.980;2024-02-23T10:16:14;8.20;95.90
43647;DHT22;56152;49.996;18.980;2024-02-23T10:21:18;8.30;95.90
43647;DHT22;56152;49.996;18.980;2024-02-23T10:26:20;8.30;95.90
43647;DHT22;56152;49.996;18.980;2024-02-23T10:31:24;8.50;95.90
43647;DHT22;56152;49.996;18.980;2024-02-23T10:36:29;8.60;95.80
43647;DHT22;56152;49.996;18.980;2024-02-23T10:41:35;8.70;95.70
43647;DHT22;56152;49.996;18.980;2024-02-23T10:46:37;8.70;95.60
43647;DHT22;56152;49.996;18.980;2024-02-23T10:51:43;8.70;95.50
43647;DHT22;56152;49.996;18.980;2024-02-23T10:56:49;8.70;95.50
43647;DHT22;56152;49.996;18.980;2024-02-23T11:01:53;8.70;95.40
43647;DHT22;56152;49.996;18.980;2024-02-23T11:06:59;8.80;95.50
43647;DHT22;56152;49.996;18.980;2024-02-23T11:12:06;8.80;95.70
43647;DHT22;56152;49.996;18.980;2024-02-23T11:17:18;8.80;95.40
43647;DHT22;56152;49.996;18.980;2024-02-23T11:22:26;8.90;95.40
43647;DHT22;56152;49.996;18.980;2024-02-23T11:27:30;8.90;95.30
43647;DHT22;56152;49.996;18.980;2024-02-23T11:32:38;8.90;95.30
43647;DHT22;56152;49.996;18.980;2024-02-23T11:37:53;9.00;95.30
43647;DHT22;56152;49.996;18.980;2024-02-23T11:42:59;9.00;95.30
43647;DHT22;56152;49.996;18.980;2024-02-23T11:48:01;9.10;95.20
43647;DHT22;56152;49.996;18.980;2024-02-23T11:53:05;9.10;95.20
43647;DHT22;56152;49.996;18.980;2024-02-23T11:58:07;9.00;95.10
43647;DHT22;56152;49.996;18.980;2024-02-23T12:03:09;9.00;95.20
43647;DHT22;56152;49.996;18.980;2024-02-23T12:08:14;9.00;95.30
43647;DHT22;56152;49.996;18.980;2024-02-23T12:13:17;8.90;95.30
43647;DHT22;56152;49.996;18.980;2024-02-23T12:18:21;8.90;95.40
43647;DHT22;56152;49.996;18.980;2024-02-23T12:23:38;8.80;95.50
43647;DHT22;56152;49.996;18.980;2024-02-23T12:28:41;8.90;95.60
43647;DHT22;56152;49.996;18.980;2024-02-23T12:33:43;8.90;95.70
43647;DHT22;56152;49.996;18.980;2024-02-23T12:38:50;9.00;95.70
43647;DHT22;56152;49.996;18.980;2024-02-23T12:43:51;9.00;95.70
43647;DHT22;56152;49.996;18.980;2024-02-23T12:48:53;9.00;95.70
43647;DHT22;56152;49.996;18.980;2024-02-23T12:53:59;8.90;95.70
43647;DHT22;56152;49.996;18.980;2024-02-23T12:59:04;9.00;95.80
43647;DHT22;56152;49.996;18.980;2024-02-23T13:04:10;9.00;95.80
43647;DHT22;56152;49.996;18.980;2024-02-23T13:09:15;9.00;95.80
43647;DHT22;56152;49.996;18.980;2024-02-23T13:14:17;9.00;95.90
43647;DHT22;56152;49.996;18.980;2024-02-23T13:19:19;9.20;95.90
43647;DHT22;56152;49.996;18.980;2024-02-23T13:24:22;9.30;95.80
43647;DHT22;56152;49.996;18.980;2024-02-23T13:29:24;9.30;95.70
43647;DHT22;56152;49.996;18.980;2024-02-23T13:34:27;9.30;95.70
43647;DHT22;56152;49.996;18.980;2024-02-23T13:39:32;9.30;95.60
43647;DHT22;56152;49.996;18.980;2024-02-23T13:44:34;9.30;95.60
43647;DHT22;56152;49.996;18.980;2024-02-23T13:49:36;9.30;95.60
43647;DHT22;56152;49.996;18.980;2024-02-23T13:54:40;9.20;95.60
43647;DHT22;56152;49.996;18.980;2024-02-23T13:59:43;9.20;95.60
43647;DHT22;56152;49.996;18.980;2024-02-23T14:04:45;9.10;95.60
43647;DHT22;56152;49.996;18.980;2024-02-23T14:09:49;9.10;95.60
43647;DHT22;56152;49.996;18.980;2024-02-23T14:14:51;9.00;95.60
43647;DHT22;56152;49.996;18.980;2024-02-23T14:19:53;8.90;95.70
43647;DHT22;56152;49.996;18.980;2024-02-23T14:24:57;8.90;95.80
43647;DHT22;56152;49.996;18.980;2024-02-23T14:30:01;8.90;95.80
43647;DHT22;56152;49.996;18.980;2024-02-23T14:35:03;8.80;95.80
43647;DHT22;56152;49.996;18.980;2024-02-23T14:40:09;8.80;95.80
43647;DHT22;56152;49.996;18.980;2024-02-23T14:45:13;8.80;95.80
43647;DHT22;56152;49.996;18.980;2024-02-23T14:50:17;8.80;95.80
43647;DHT22;56152;49.996;18.980;2024-02-23T14:55:21;8.70;95.90
43647;DHT22;56152;49.996;18.980;2024-02-23T15:00:25;8.70;95.90
43647;DHT22;56152;49.996;18.980;2024-02-23T15:05:27;8.70;96.00
43647;DHT22;56152;49.996;18.980;2024-02-23T15:10:32;8.60;96.00
43647;DHT22;56152;49.996;18.980;2024-02-23T15:15:37;8.60;96.10
43647;DHT22;56152;49.996;18.980;2024-02-23T15:20:40;8.60;96.20
43647;DHT22;56152;49.996;18.980;2024-02-23T15:25:44;8.50;96.20
43647;DHT22;56152;49.996;18.980;2024-02-23T15:30:46;8.60;96.30
43647;DHT22;56152;49.996;18.980;2024-02-23T15:35:48;8.50;96.30
43647;DHT22;56152;49.996;18.980;2024-02-23T15:40:53;8.50;96.40
43647;DHT22;56152;49.996;18.980;2024-02-23T15:45:54;8.50;96.50
43647;DHT22;56152;49.996;18.980;2024-02-23T15:51:00;8.40;96.50
43647;DHT22;56152;49.996;18.980;2024-02-23T15:56:04;8.40;96.90
43647;DHT22;56152;49.996;18.980;2024-02-23T16:01:06;8.40;96.70
43647;DHT22;56152;49.996;18.980;2024-02-23T16:06:11;8.30;96.70
43647;DHT22;56152;49.996;18.980;2024-02-23T16:11:14;8.30;96.80
43647;DHT22;56152;49.996;18.980;2024-02-23T16:16:17;8.20;96.80
43647;DHT22;56152;49.996;18.980;2024-02-23T16:21:24;8.10;96.80
43647;DHT22;56152;49.996;18.980;2024-02-23T16:26:29;8.10;97.00
43647;DHT22;56152;49.996;18.980;2024-02-23T16:31:35;8.10;97.00
43647;DHT22;56152;49.996;18.980;2024-02-23T16:36:38;8.10;97.10
43647;DHT22;56152;49.996;18.980;2024-02-23T16:41:48;8.00;97.10
43647;DHT22;56152;49.996;18.980;2024-02-23T16:46:50;8.00;97.10
43647;DHT22;56152;49.996;18.980;2024-02-23T16:52:07;8.00;97.20
43647;DHT22;56152;49.996;18.980;2024-02-23T16:57:10;8.00;97.30
43647;DHT22;56152;49.996;18.980;2024-02-23T17:02:12;8.00;97.70
43647;DHT22;56152;49.996;18.980;2024-02-23T17:07:15;8.10;97.50
43647;DHT22;56152;49.996;18.980;2024-02-23T17:12:18;8.20;97.30
43647;DHT22;56152;49.996;18.980;2024-02-23T17:17:21;8.30;97.20
43647;DHT22;56152;49.996;18.980;2024-02-23T17:22:23;8.40;97.10
43647;DHT22;56152;49.996;18.980;2024-02-23T17:27:29;8.40;97.10
43647;DHT22;56152;49.996;18.980;2024-02-23T17:32:31;8.40;97.20
43647;DHT22;56152;49.996;18.980;2024-02-23T17:37:33;8.40;97.20
43647;DHT22;56152;49.996;18.980;2024-02-23T17:42:37;8.30;97.20
43647;DHT22;56152;49.996;18.980;2024-02-23T17:47:39;8.20;97.30
43647;DHT22;56152;49.996;18.980;2024-02-23T17:52:44;8.10;97.30
43647;DHT22;56152;49.996;18.980;2024-02-23T17:57:47;8.10;97.30
43647;DHT22;56152;49.996;18.980;2024-02-23T18:02:49;8.00;97.40
43647;DHT22;56152;49.996;18.980;2024-02-23T18:07:51;8.00;97.40
43647;DHT22;56152;49.996;18.980;2024-02-23T18:12:54;8.00;97.40
43647;DHT22;56152;49.996;18.980;2024-02-23T18:18:03;8.00;97.40
43647;DHT22;56152;49.996;18.980;2024-02-23T18:23:12;7.90;97.40
43647;DHT22;56152;49.996;18.980;2024-02-23T18:28:28;7.90;97.40
43647;DHT22;56152;49.996;18.980;2024-02-23T18:33:32;7.80;97.50
43647;DHT22;56152;49.996;18.980;2024-02-23T18:38:34;7.80;97.40
43647;DHT22;56152;49.996;18.980;2024-02-23T18:43:43;7.70;97.50
43647;DHT22;56152;49.996;18.980;2024-02-23T18:48:47;7.80;97.60
43647;DHT22;56152;49.996;18.980;2024-02-23T18:53:49;7.80;97.60
43647;DHT22;56152;49.996;18.980;2024-02-23T18:58:54;7.70;97.60
43647;DHT22;56152;49.996;18.980;2024-02-23T19:03:56;7.70;97.60
43647;DHT22;56152;49.996;18.980;2024-02-23T19:08:59;7.70;97.60
43647;DHT22;56152;49.996;18.980;2024-02-23T19:14:06;7.70;97.70
43647;DHT22;56152;49.996;18.980;2024-02-23T19:19:08;7.70;97.70
43647;DHT22;56152;49.996;18.980;2024-02-23T19:24:12;7.70;97.70
43647;DHT22;56152;49.996;18.980;2024-02-23T19:29:19;7.60;97.70
43647;DHT22;56152;49.996;18.980;2024-02-23T19:34:23;7.60;97.80
43647;DHT22;56152;49.996;18.980;2024-02-23T19:39:25;7.60;97.90
43647;DHT22;56152;49.996;18.980;2024-02-23T19:44:30;7.50;97.80
43647;DHT22;56152;49.996;18.980;2024-02-23T19:49:37;7.60;97.90
43647;DHT22;56152;49.996;18.980;2024-02-23T19:54:39;7.50;97.80
43647;DHT22;56152;49.996;18.980;2024-02-23T19:59:42;7.60;97.80
43647;DHT22;56152;49.996;18.980;2024-02-23T20:04:44;7.50;97.90
43647;DHT22;56152;49.996;18.980;2024-02-23T20:09:51;7.50;97.90
43647;DHT22;56152;49.996;18.980;2024-02-23T20:14:56;7.50;97.90
43647;DHT22;56152;49.996;18.980;2024-02-23T20:20:04;7.50;98.00
43647;DHT22;56152;49.996;18.980;2024-02-23T20:25:08;7.50;98.00
43647;DHT22;56152;49.996;18.980;2024-02-23T20:30:13;7.40;98.00
43647;DHT22;56152;49.996;18.980;2024-02-23T20:35:15;7.40;98.10
43647;DHT22;56152;49.996;18.980;2024-02-23T20:40:17;7.40;98.20
43647;DHT22;56152;49.996;18.980;2024-02-23T20:45:21;7.30;98.20
43647;DHT22;56152;49.996;18.980;2024-02-23T20:50:24;7.30;98.20
43647;DHT22;56152;49.996;18.980;2024-02-23T20:55:31;7.30;98.20
43647;DHT22;56152;49.996;18.980;2024-02-23T21:00:35;7.30;98.30
43647;DHT22;56152;49.996;18.980;2024-02-23T21:05:39;7.30;98.50
43647;DHT22;56152;49.996;18.980;2024-02-23T21:10:44;7.40;98.10
43647;DHT22;56152;49.996;18.980;2024-02-23T21:15:50;7.40;98.00
43647;DHT22;56152;49.996;18.980;2024-02-23T21:20:52;7.50;97.90
43647;DHT22;56152;49.996;18.980;2024-02-23T21:25:54;7.50;97.80
43647;DHT22;56152;49.996;18.980;2024-02-23T21:30:58;7.50;97.70
43647;DHT22;56152;49.996;18.980;2024-02-23T21:36:05;7.60;97.70
43647;DHT22;56152;49.996;18.980;2024-02-23T21:41:07;7.60;97.60
43647;DHT22;56152;49.996;18.980;2024-02-23T21:46:11;7.50;97.50
43647;DHT22;56152;49.996;18.980;2024-02-23T21:51:13;7.50;97.50
43647;DHT22;56152;49.996;18.980;2024-02-23T21:56:15;7.50;97.50
43647;DHT22;56152;49.996;18.980;2024-02-23T22:01:19;7.50;97.60
43647;DHT22;56152;49.996;18.980;2024-02-23T22:06:21;7.40;97.60
43647;DHT22;56152;49.996;18.980;2024-02-23T22:11:23;7.40;97.70
43647;DHT22;56152;49.996;18.980;2024-02-23T22:16:27;7.40;97.70
43647;DHT22;56152;49.996;18.980;2024-02-23T22:21:29;7.40;97.80
43647;DHT22;56152;49.996;18.980;2024-02-23T22:26:31;7.40;97.80
43647;DHT22;56152;49.996;18.980;2024-02-23T22:31:35;7.30;97.80
43647;DHT22;56152;49.996;18.980;2024-02-23T22:36:37;7.30;97.90
43647;DHT22;56152;49.996;18.980;2024-02-23T22:41:39;7.30;97.90
43647;DHT22;56152;49.996;18.980;2024-02-23T22:46:42;7.30;97.90
43647;DHT22;56152;49.996;18.980;2024-02-23T22:51:45;7.30;97.90
43647;DHT22;56152;49.996;18.980;2024-02-23T22:56:47;7.40;97.90
43647;DHT22;56152;49.996;18.980;2024-02-23T23:01:51;7.40;97.90
43647;DHT22;56152;49.996;18.980;2024-02-23T23:06:55;7.40;97.80
43647;DHT22;56152;49.996;18.980;2024-02-23T23:11:57;7.50;97.70
43647;DHT22;56152;49.996;18.980;2024-02-23T23:17:03;7.60;97.60
43647;DHT22;56152;49.996;18.980;2024-02-23T23:22:05;7.70;97.50
43647;DHT22;56152;49.996;18.980;2024-02-23T23:27:07;7.60;97.40
43647;DHT22;56152;49.996;18.980;2024-02-23T23:32:11;7.60;97.40
43647;DHT22;56152;49.996;18.980;2024-02-23T23:37:16;7.60;97.40
43647;DHT22;56152;49.996;18.980;2024-02-23T23:42:18;7.60;97.50
43647;DHT22;56152;49.996;18.980;2024-02-23T23:47:23;7.60;97.50
43647;DHT22;56152;49.996;18.980;2024-02-23T23:52:25;7.60;97.40
43647;DHT22;56152;49.996;18.980;2024-02-23T23:57:27;7.60;97.40
